createdAt,value
2023-08-11T00:45:50.643Z,68.90
2023-08-11T00:48:18.674Z,69.00
2023-08-11T00:50:46.834Z,69.80
2023-08-11T00:53:15.184Z,69.50
2023-08-11T00:55:43.147Z,69.20
2023-08-11T00:58:11.276Z,69.10
2023-08-11T01:00:40.352Z,69.30
2023-08-11T01:03:10.210Z,69.00
2023-08-11T01:05:45.296Z,69.40
2023-08-11T01:08:19.124Z,68.70
2023-08-11T01:10:54.517Z,69.20
2023-08-11T01:13:22.882Z,69.50
2023-08-11T01:15:58.175Z,70.20
2023-08-11T01:18:29.243Z,70.50
2023-08-11T01:21:05.375Z,70.90
2023-08-11T01:23:35.287Z,69.70
2023-08-11T01:26:03.330Z,69.60
2023-08-11T01:28:31.288Z,69.60
2023-08-11T01:30:59.244Z,69.80
2023-08-11T01:33:27.299Z,69.80
2023-08-11T01:35:55.301Z,69.90
2023-08-11T01:38:23.195Z,69.10
2023-08-11T01:40:52.568Z,69.00
2023-08-11T01:43:21.999Z,69.60
2023-08-11T01:45:51.259Z,69.70
2023-08-11T01:48:20.900Z,69.60
2023-08-11T01:50:48.995Z,69.90
2023-08-11T01:53:17.051Z,69.90
2023-08-11T01:55:46.035Z,69.60
2023-08-11T01:58:15.547Z,69.30
2023-08-11T02:00:43.400Z,69.70
2023-08-11T02:03:11.368Z,69.50
2023-08-11T02:05:39.592Z,69.60
2023-08-11T02:08:08.132Z,69.20
2023-08-11T02:10:35.999Z,69.70
2023-08-11T02:13:06.310Z,69.70
2023-08-11T02:15:35.488Z,69.40
2023-08-11T02:18:03.396Z,69.70
2023-08-11T02:20:33.975Z,69.90
2023-08-11T02:23:02.053Z,69.70
2023-08-11T02:25:30.023Z,69.80
2023-08-11T02:27:57.870Z,69.60
2023-08-11T02:30:29.894Z,69.50
2023-08-11T02:32:59.258Z,69.30
2023-08-11T02:35:27.303Z,69.70
2023-08-11T02:37:55.199Z,70.20
2023-08-11T02:40:23.299Z,71.10
2023-08-11T02:42:56.181Z,71.00
2023-08-11T02:45:24.287Z,71.40
2023-08-11T02:47:53.128Z,71.20
2023-08-11T02:50:22.419Z,71.20
2023-08-11T02:52:50.423Z,70.80
2023-08-11T02:55:18.462Z,70.60
2023-08-11T02:57:46.981Z,70.70
2023-08-11T03:00:16.135Z,70.70
2023-08-11T03:02:47.138Z,70.50
2023-08-11T03:05:16.795Z,70.70
2023-08-11T03:07:46.066Z,70.80
2023-08-11T03:10:13.973Z,71.30
2023-08-11T03:12:41.945Z,71.30
2023-08-11T03:15:10.358Z,71.80
2023-08-11T03:17:38.342Z,72.10
2023-08-11T03:20:12.489Z,71.80
2023-08-11T03:22:40.493Z,71.70
2023-08-11T03:25:12.654Z,71.50
2023-08-11T03:27:43.224Z,71.60
2023-08-11T03:30:12.980Z,71.70
2023-08-11T03:32:41.706Z,71.70
2023-08-11T03:35:10.237Z,71.70
2023-08-11T03:37:38.134Z,72.40
2023-08-11T03:40:10.345Z,72.30
2023-08-11T03:42:39.555Z,72.00
2023-08-11T03:45:08.592Z,72.00
2023-08-11T03:47:36.646Z,71.90
2023-08-11T03:50:04.917Z,72.20
2023-08-11T03:52:33.142Z,72.50
2023-08-11T03:55:01.085Z,72.20
2023-08-11T03:57:29.176Z,72.10
2023-08-11T03:59:58.521Z,72.30
2023-08-11T04:02:27.329Z,71.80
2023-08-11T04:04:55.291Z,71.90
2023-08-11T04:07:23.378Z,72.20
2023-08-11T04:09:51.252Z,72.40
2023-08-11T04:12:19.237Z,72.50
2023-08-11T04:14:47.074Z,72.40
2023-08-11T04:17:17.633Z,72.80
2023-08-11T04:19:46.413Z,72.80
2023-08-11T04:22:15.972Z,73.00
2023-08-11T04:24:46.441Z,73.40
2023-08-11T04:27:14.313Z,73.60
2023-08-11T04:29:42.345Z,73.10
2023-08-11T04:32:11.277Z,73.30
2023-08-11T04:34:40.750Z,73.10
2023-08-11T04:37:09.653Z,73.10
2023-08-11T04:39:38.023Z,73.30
2023-08-11T04:42:06.490Z,73.20
2023-08-11T04:44:34.548Z,73.20
2023-08-11T04:47:02.486Z,73.10
2023-08-11T04:49:30.605Z,73.10
2023-08-11T04:51:59.834Z,73.30
2023-08-11T04:54:27.861Z,73.30
2023-08-11T04:56:55.927Z,73.60
2023-08-11T04:59:23.791Z,73.50
2023-08-11T05:01:52.038Z,73.50
2023-08-11T05:04:19.875Z,73.30
2023-08-11T05:06:47.642Z,73.70
2023-08-11T05:09:16.949Z,73.50
2023-08-11T05:11:44.768Z,73.30
2023-08-11T05:14:15.309Z,73.50
2023-08-11T05:16:43.337Z,73.30
2023-08-11T05:19:11.266Z,73.10
2023-08-11T05:21:39.610Z,73.10
2023-08-11T05:24:08.803Z,73.40
2023-08-11T05:26:38.038Z,73.40
2023-08-11T05:29:06.688Z,73.10
2023-08-11T05:31:35.492Z,73.10
2023-08-11T05:34:03.505Z,73.20
2023-08-11T05:36:31.352Z,73.10
2023-08-11T05:38:59.238Z,73.40
2023-08-11T05:41:27.077Z,73.30
2023-08-11T05:43:56.292Z,73.10
2023-08-11T05:46:24.409Z,73.30
2023-08-11T05:48:52.341Z,73.60
2023-08-11T05:51:20.286Z,73.50
2023-08-11T05:53:48.301Z,73.10
2023-08-11T05:56:18.916Z,73.30
2023-08-11T05:58:46.759Z,72.80
2023-08-11T06:01:16.004Z,72.90
2023-08-11T06:03:43.865Z,73.00
2023-08-11T06:06:11.796Z,73.00
2023-08-11T06:08:39.788Z,73.00
2023-08-11T06:11:07.674Z,72.20
2023-08-11T06:13:35.579Z,72.30
2023-08-11T06:16:03.809Z,71.20
2023-08-11T06:18:33.037Z,70.10
2023-08-11T06:21:05.181Z,70.10
2023-08-11T06:23:33.328Z,68.80
2023-08-11T06:26:01.254Z,68.10
2023-08-11T06:28:29.574Z,67.50
2023-08-11T06:30:59.579Z,66.40
2023-08-11T06:33:27.624Z,66.30
2023-08-11T06:35:56.995Z,65.60
2023-08-11T06:38:24.913Z,64.60
2023-08-11T06:40:53.043Z,63.60
2023-08-11T06:43:21.314Z,63.10
2023-08-11T06:45:49.173Z,62.10
2023-08-11T06:48:17.014Z,62.80
2023-08-11T06:50:44.901Z,62.20
2023-08-11T06:53:14.420Z,62.80
2023-08-11T06:55:42.218Z,61.30
2023-08-11T06:58:10.153Z,61.60
2023-08-11T07:00:38.689Z,61.30
2023-08-11T07:03:06.696Z,61.10
2023-08-11T07:05:34.757Z,59.80
2023-08-11T07:08:02.579Z,60.30
2023-08-11T07:10:31.694Z,59.20
2023-08-11T07:12:59.585Z,58.70
2023-08-11T07:15:27.397Z,58.90
2023-08-11T07:17:55.390Z,58.00
2023-08-11T07:20:23.497Z,58.30
2023-08-11T07:22:51.726Z,58.10
2023-08-11T07:25:19.713Z,58.40
2023-08-11T07:27:49.193Z,58.50
2023-08-11T07:30:17.115Z,57.70
2023-08-11T07:32:44.992Z,57.60
2023-08-11T07:35:13.346Z,57.30
2023-08-11T07:37:41.174Z,58.30
2023-08-11T07:40:10.531Z,56.40
2023-08-11T07:42:38.501Z,57.70
2023-08-11T07:45:09.212Z,55.10
2023-08-11T07:47:37.095Z,55.90
2023-08-11T07:50:05.426Z,55.30
2023-08-11T07:52:33.321Z,54.20
2023-08-11T07:55:01.287Z,55.60
2023-08-11T07:57:29.606Z,55.10
2023-08-11T07:59:58.329Z,54.10
2023-08-11T08:02:27.877Z,54.60
2023-08-11T08:05:05.794Z,54.10
2023-08-11T08:07:40.057Z,55.10
2023-08-11T08:10:09.705Z,54.10
2023-08-11T08:12:38.472Z,55.90
2023-08-11T08:15:07.548Z,53.80
2023-08-11T08:17:37.422Z,53.40
2023-08-11T08:20:08.168Z,53.50
2023-08-11T08:22:36.073Z,54.50
2023-08-11T08:25:07.825Z,55.00
2023-08-11T08:27:36.193Z,54.60
2023-08-11T08:30:04.425Z,52.80
2023-08-11T08:32:32.355Z,52.70
2023-08-11T08:35:01.723Z,53.30
2023-08-11T08:37:29.983Z,53.70
2023-08-11T08:39:57.873Z,54.70
2023-08-11T08:42:27.627Z,53.50
2023-08-11T08:44:56.271Z,53.30
2023-08-11T08:47:25.551Z,53.10
2023-08-11T08:49:54.227Z,52.30
2023-08-11T08:52:23.958Z,53.00
2023-08-11T08:54:52.425Z,53.10
2023-08-11T08:57:21.814Z,52.90
2023-08-11T08:59:49.837Z,51.70
2023-08-11T09:02:18.482Z,50.70
2023-08-11T09:04:47.729Z,51.10
2023-08-11T09:07:18.373Z,51.20
2023-08-11T09:09:49.362Z,51.20
2023-08-11T09:12:17.333Z,51.60
2023-08-11T09:14:45.523Z,51.90
2023-08-11T09:17:13.994Z,51.10
2023-08-11T09:19:45.499Z,51.20
2023-08-11T09:22:13.569Z,50.90
2023-08-11T09:24:41.998Z,51.00
2023-08-11T09:27:12.327Z,50.10
2023-08-11T09:29:40.140Z,51.80
2023-08-11T09:32:09.016Z,51.00
2023-08-11T09:34:40.667Z,51.10
2023-08-11T09:37:08.591Z,52.20
2023-08-11T09:39:37.971Z,51.90
2023-08-11T09:42:07.007Z,51.90
2023-08-11T09:44:36.850Z,50.70
2023-08-11T09:47:15.418Z,49.20
2023-08-11T09:49:44.109Z,50.50
2023-08-11T09:52:13.710Z,49.30
2023-08-11T09:54:44.949Z,49.80
2023-08-11T09:57:15.318Z,51.20
2023-08-11T09:59:48.337Z,50.00
2023-08-11T10:02:19.419Z,50.00
2023-08-11T10:04:58.505Z,50.50
2023-08-11T10:07:35.257Z,49.20
2023-08-11T10:10:10.255Z,50.00
2023-08-11T10:12:41.816Z,48.70
2023-08-11T10:15:13.253Z,50.90
2023-08-11T10:17:41.875Z,48.00
2023-08-11T10:20:11.236Z,49.60
2023-08-11T10:22:39.112Z,50.30
2023-08-11T10:25:08.973Z,48.70
2023-08-11T10:27:37.808Z,49.10
2023-08-11T10:30:08.647Z,49.20
2023-08-11T10:32:37.986Z,51.60
2023-08-11T10:35:09.464Z,51.40
2023-08-11T10:37:37.576Z,49.80
2023-08-11T10:40:07.322Z,48.40
2023-08-11T10:42:38.248Z,48.50
2023-08-11T10:45:11.033Z,49.80
2023-08-11T10:47:41.162Z,49.00
2023-08-11T10:50:10.846Z,47.40
2023-08-11T10:52:39.051Z,49.70
2023-08-11T10:55:08.049Z,48.00
2023-08-11T10:57:36.860Z,49.30
2023-08-11T11:00:05.214Z,48.20
2023-08-11T11:02:36.395Z,49.30
2023-08-11T11:05:08.803Z,50.00
2023-08-11T11:07:39.714Z,47.10
2023-08-11T11:10:09.693Z,48.20
2023-08-11T11:12:37.561Z,47.30
2023-08-11T11:15:07.109Z,48.20
2023-08-11T11:17:34.953Z,48.40
2023-08-11T11:20:03.651Z,48.20
2023-08-11T11:22:33.141Z,48.10
2023-08-11T11:25:04.205Z,48.20
2023-08-11T11:27:32.258Z,48.80
2023-08-11T11:30:00.818Z,49.40
2023-08-11T11:32:29.113Z,49.40
2023-08-11T11:34:57.139Z,48.60
2023-08-11T11:37:26.977Z,48.20
2023-08-11T11:39:59.341Z,48.90
2023-08-11T11:42:30.311Z,48.50
2023-08-11T11:44:58.475Z,48.20
2023-08-11T11:47:27.093Z,48.50
2023-08-11T11:49:58.821Z,49.90
2023-08-11T11:52:27.626Z,46.80
2023-08-11T11:54:57.226Z,46.90
2023-08-11T11:57:26.057Z,47.70
2023-08-11T11:59:54.235Z,48.00
2023-08-11T12:02:24.017Z,49.20
2023-08-11T12:04:52.918Z,50.60
2023-08-11T12:07:32.111Z,47.70
2023-08-11T12:10:02.249Z,47.30
2023-08-11T12:12:30.517Z,47.50
2023-08-11T12:15:03.307Z,47.40
2023-08-11T12:17:32.550Z,47.30
2023-08-11T12:20:02.478Z,48.00
2023-08-11T12:22:30.678Z,49.00
2023-08-11T12:24:59.229Z,47.00
2023-08-11T12:27:30.434Z,47.00
2023-08-11T12:30:00.530Z,47.70
2023-08-11T12:32:28.376Z,47.50
2023-08-11T12:34:56.286Z,48.50
2023-08-11T12:37:24.479Z,46.60
2023-08-11T12:39:52.307Z,47.60
2023-08-11T12:42:20.421Z,47.80
2023-08-11T12:44:49.654Z,47.90
2023-08-11T12:47:17.736Z,46.10
2023-08-11T12:49:45.692Z,46.50
2023-08-11T12:52:13.517Z,47.20
2023-08-11T12:54:41.435Z,47.00
2023-08-11T12:57:09.299Z,47.00
2023-08-11T12:59:37.215Z,46.70
2023-08-11T13:02:07.352Z,46.50
2023-08-11T13:04:35.300Z,46.80
2023-08-11T13:07:03.148Z,47.00
2023-08-11T13:09:30.932Z,47.60
2023-08-11T13:11:58.853Z,46.30
2023-08-11T13:14:27.297Z,47.80
2023-08-11T13:16:55.202Z,45.70
2023-08-11T13:19:24.526Z,48.70
2023-08-11T13:21:52.361Z,46.30
2023-08-11T13:24:21.338Z,45.20
2023-08-11T13:26:49.400Z,45.00
2023-08-11T13:29:17.242Z,47.10
2023-08-11T13:31:45.099Z,45.80
2023-08-11T13:34:13.191Z,45.50
2023-08-11T13:36:43.598Z,45.70
2023-08-11T13:39:11.676Z,46.90
2023-08-11T13:41:40.675Z,45.40
2023-08-11T13:44:08.576Z,45.00
2023-08-11T13:46:36.390Z,43.60
2023-08-11T13:49:04.373Z,45.30
2023-08-11T13:51:33.569Z,44.50
2023-08-11T13:54:04.410Z,44.70
2023-08-11T13:56:34.880Z,46.20
2023-08-11T13:59:03.528Z,46.00
2023-08-11T14:01:31.633Z,45.20
2023-08-11T14:03:59.641Z,43.60
2023-08-11T14:06:27.732Z,45.60
2023-08-11T14:08:55.695Z,45.70
2023-08-11T14:11:25.694Z,44.10
2023-08-11T14:13:53.594Z,43.90
2023-08-11T14:16:21.726Z,44.40
2023-08-11T14:18:49.790Z,44.40
2023-08-11T14:21:18.801Z,45.90
2023-08-11T14:23:47.985Z,44.10
2023-08-11T14:26:15.910Z,44.60
2023-08-11T14:28:45.379Z,45.30
2023-08-11T14:31:13.502Z,45.20
2023-08-11T14:33:42.048Z,45.80
2023-08-11T14:36:13.337Z,46.50
2023-08-11T14:38:43.303Z,45.70
2023-08-11T14:41:11.516Z,44.80
2023-08-11T14:43:39.319Z,45.40
2023-08-11T14:46:08.553Z,45.90
2023-08-11T14:48:36.432Z,45.20
2023-08-11T14:51:05.131Z,43.40
2023-08-11T14:53:33.261Z,42.50
2023-08-11T14:56:01.209Z,42.00
2023-08-11T14:58:29.021Z,43.00
2023-08-11T15:00:57.677Z,43.00
2023-08-11T15:03:28.033Z,44.20
2023-08-11T15:05:55.929Z,44.50
2023-08-11T15:08:24.227Z,44.10
2023-08-11T15:10:52.071Z,44.00
2023-08-11T15:13:19.929Z,44.30
2023-08-11T15:15:47.847Z,44.80
2023-08-11T15:18:15.683Z,41.90
2023-08-11T15:20:44.935Z,42.20
2023-08-11T15:23:12.798Z,41.60
2023-08-11T15:25:43.325Z,41.40
2023-08-11T15:28:11.977Z,41.50
2023-08-11T15:30:39.867Z,40.20
2023-08-11T15:33:07.769Z,41.70
2023-08-11T15:35:35.660Z,41.20
2023-08-11T15:38:07.062Z,42.70
2023-08-11T15:40:35.272Z,41.30
2023-08-11T15:43:03.544Z,42.80
2023-08-11T15:45:31.468Z,42.40
2023-08-11T15:47:59.356Z,42.60
2023-08-11T15:50:27.270Z,42.30
2023-08-11T15:52:55.160Z,42.90
2023-08-11T15:55:35.723Z,42.40
2023-08-11T15:58:04.436Z,43.30
2023-08-11T16:00:32.385Z,42.90
2023-08-11T16:03:00.480Z,41.90
2023-08-11T16:05:28.579Z,43.20
2023-08-11T16:07:56.401Z,42.10
2023-08-11T16:10:27.498Z,42.50
2023-08-11T16:12:55.432Z,41.90
2023-08-11T16:15:23.447Z,42.10
2023-08-11T16:17:54.392Z,42.40
2023-08-11T16:20:22.283Z,42.20
2023-08-11T16:22:51.638Z,42.00
2023-08-11T16:25:19.704Z,42.50
2023-08-11T16:27:48.894Z,42.10
2023-08-11T16:30:16.882Z,42.20
2023-08-11T16:32:44.705Z,42.30
2023-08-11T16:35:12.579Z,41.80
2023-08-11T16:37:40.730Z,42.30
2023-08-11T16:40:10.281Z,42.40
2023-08-11T16:42:38.178Z,42.50
2023-08-11T16:45:08.129Z,43.40
2023-08-11T16:47:36.169Z,42.80
2023-08-11T16:50:04.117Z,43.20
2023-08-11T16:52:32.266Z,43.80
2023-08-11T16:55:00.189Z,43.60
2023-08-11T16:57:28.540Z,44.20
2023-08-11T16:59:56.425Z,44.70
2023-08-11T17:02:25.759Z,44.20
2023-08-11T17:04:53.735Z,44.00
2023-08-11T17:07:21.673Z,44.40
2023-08-11T17:09:49.504Z,45.20
2023-08-11T17:12:17.742Z,44.40
2023-08-11T17:14:45.573Z,45.80
2023-08-11T17:17:13.421Z,45.10
2023-08-11T17:19:42.692Z,46.70
2023-08-11T17:22:11.817Z,48.00
2023-08-11T17:24:40.131Z,48.40
2023-08-11T17:27:08.131Z,50.20
2023-08-11T17:29:35.921Z,51.10
2023-08-11T17:32:03.951Z,50.50
2023-08-11T17:34:34.067Z,51.90
2023-08-11T17:37:06.033Z,52.10
2023-08-11T17:39:34.816Z,52.10
2023-08-11T17:42:03.957Z,52.90
2023-08-11T17:44:31.832Z,53.90
2023-08-11T17:46:59.737Z,54.80
2023-08-11T17:49:27.923Z,55.60
2023-08-11T17:51:55.809Z,54.80
2023-08-11T17:54:24.995Z,55.30
2023-08-11T17:56:52.811Z,55.40
2023-08-11T17:59:20.578Z,56.30
2023-08-11T18:01:48.384Z,56.50
2023-08-11T18:04:16.241Z,56.00
2023-08-11T18:06:44.069Z,56.80
2023-08-11T18:09:12.503Z,56.60
2023-08-11T18:11:41.671Z,56.20
2023-08-11T18:14:09.639Z,56.00
2023-08-11T18:16:37.694Z,55.70
2023-08-11T18:19:05.699Z,56.60
2023-08-11T18:21:33.619Z,56.80
2023-08-11T18:24:01.555Z,58.10
2023-08-11T18:26:30.729Z,59.00
2023-08-11T18:28:59.917Z,59.20
2023-08-11T18:31:28.244Z,59.10
2023-08-11T18:33:56.248Z,58.80
2023-08-11T18:36:24.648Z,59.30
2023-08-11T18:38:52.529Z,59.40
2023-08-11T18:41:21.433Z,59.60
2023-08-11T18:43:49.303Z,59.50
2023-08-11T18:46:18.767Z,59.10
2023-08-11T18:48:49.081Z,59.50
2023-08-11T18:51:17.322Z,60.00
2023-08-11T18:53:45.378Z,59.30
2023-08-11T18:56:13.246Z,58.80
2023-08-11T18:58:41.012Z,59.50
2023-08-11T19:01:08.917Z,58.90
2023-08-11T19:03:38.219Z,59.30
2023-08-11T19:06:06.797Z,59.40
2023-08-11T19:08:34.653Z,59.10
2023-08-11T19:11:02.677Z,59.90
2023-08-11T19:13:30.652Z,59.60
2023-08-11T19:15:58.577Z,60.30
2023-08-11T19:18:26.443Z,60.20
2023-08-11T19:20:58.022Z,60.00
2023-08-11T19:23:26.588Z,60.30
2023-08-11T19:25:54.534Z,60.50
2023-08-11T19:28:22.379Z,61.20
2023-08-11T19:30:52.507Z,61.90
2023-08-11T19:33:20.359Z,62.10
2023-08-11T19:35:48.586Z,62.50
2023-08-11T19:38:17.852Z,62.70
2023-08-11T19:40:45.776Z,62.60
2023-08-11T19:43:13.617Z,63.00
2023-08-11T19:45:47.901Z,62.80
2023-08-11T19:48:15.794Z,62.70
2023-08-11T19:50:45.698Z,62.60
2023-08-11T19:53:13.864Z,62.90
2023-08-11T19:55:45.192Z,63.00
2023-08-11T19:58:13.465Z,62.90
2023-08-11T20:00:41.868Z,62.60
2023-08-11T20:03:10.598Z,63.10
2023-08-11T20:05:43.651Z,64.70
2023-08-11T20:08:11.812Z,65.40
2023-08-11T20:10:39.973Z,66.30
2023-08-11T20:13:09.345Z,65.90
2023-08-11T20:15:37.250Z,65.70
2023-08-11T20:18:05.700Z,65.50
2023-08-11T20:20:33.751Z,65.90
2023-08-11T20:23:01.613Z,66.20
2023-08-11T20:25:29.586Z,66.30
2023-08-11T20:27:57.964Z,66.40
2023-08-11T20:30:27.121Z,66.40
2023-08-11T20:32:55.255Z,65.70
2023-08-11T20:35:23.308Z,65.70
2023-08-11T20:37:51.225Z,65.70
2023-08-11T20:40:19.060Z,66.00
2023-08-11T20:42:47.035Z,66.20
2023-08-11T20:45:14.918Z,65.70
2023-08-11T20:47:44.179Z,65.10
2023-08-11T20:50:12.273Z,64.50
2023-08-11T20:52:40.104Z,64.90
2023-08-11T20:55:08.655Z,65.70
2023-08-11T20:57:36.517Z,66.50
2023-08-11T21:00:06.718Z,67.20
2023-08-11T21:02:34.536Z,67.50
2023-08-11T21:05:03.740Z,67.20
2023-08-11T21:07:31.559Z,67.50
2023-08-11T21:09:59.422Z,67.90
2023-08-11T21:12:27.336Z,67.70
2023-08-11T21:14:55.105Z,67.50
2023-08-11T21:17:22.918Z,67.10
2023-08-11T21:19:50.927Z,66.40
2023-08-11T21:22:20.089Z,66.20
2023-08-11T21:24:47.957Z,65.40
2023-08-11T21:27:17.921Z,65.80
2023-08-11T21:29:45.939Z,66.60
2023-08-11T21:32:13.813Z,67.20
2023-08-11T21:34:41.700Z,67.40
2023-08-11T21:37:09.807Z,67.50
2023-08-11T21:39:40.404Z,68.10
2023-08-11T21:42:09.624Z,68.20
2023-08-11T21:44:37.692Z,68.10
2023-08-11T21:47:06.063Z,68.90
2023-08-11T21:49:34.297Z,69.50
2023-08-11T21:52:02.156Z,69.50
2023-08-11T21:54:30.049Z,69.60
2023-08-11T21:56:59.328Z,69.70
2023-08-11T21:59:27.465Z,69.90
2023-08-11T22:01:55.424Z,70.00
2023-08-11T22:04:23.628Z,69.80
2023-08-11T22:06:51.485Z,69.70
2023-08-11T22:09:19.522Z,68.70
2023-08-11T22:11:47.513Z,68.80
2023-08-11T22:14:16.838Z,67.10
2023-08-11T22:16:45.058Z,66.30
2023-08-11T22:19:13.408Z,65.60
2023-08-11T22:21:41.317Z,65.20
2023-08-11T22:24:09.803Z,65.20
2023-08-11T22:26:38.013Z,65.40
2023-08-11T22:29:06.173Z,66.60
2023-08-11T22:31:35.428Z,66.80
2023-08-11T22:34:03.285Z,66.70
2023-08-11T22:36:31.095Z,66.90
2023-08-11T22:38:58.998Z,67.00
2023-08-11T22:41:27.154Z,67.30
2023-08-11T22:43:55.006Z,65.90
2023-08-11T22:46:22.933Z,66.80
2023-08-11T22:48:52.283Z,68.00
2023-08-11T22:51:20.572Z,68.90
2023-08-11T22:53:48.421Z,69.60
2023-08-11T22:56:16.263Z,69.90
2023-08-11T22:58:44.060Z,70.70
2023-08-11T23:01:11.976Z,71.40
2023-08-11T23:03:39.821Z,71.60
2023-08-11T23:06:09.259Z,71.60
2023-08-11T23:08:37.677Z,72.20
2023-08-11T23:11:06.295Z,72.10
2023-08-11T23:13:34.093Z,72.10
2023-08-11T23:16:01.919Z,71.80
2023-08-11T23:18:29.915Z,71.50
2023-08-11T23:20:58.116Z,71.30
2023-08-11T23:23:27.281Z,71.50
2023-08-11T23:25:55.907Z,71.60
2023-08-11T23:28:27.148Z,72.20
2023-08-11T23:30:55.141Z,72.00
2023-08-11T23:33:23.033Z,71.90
2023-08-11T23:35:51.205Z,71.80
2023-08-11T23:38:19.029Z,72.10
2023-08-11T23:40:48.245Z,72.00
2023-08-11T23:43:16.270Z,71.80
2023-08-11T23:45:44.272Z,71.80
2023-08-11T23:48:12.281Z,72.10
2023-08-11T23:50:40.350Z,72.40
2023-08-11T23:53:08.137Z,72.20
2023-08-11T23:55:36.978Z,72.10
2023-08-11T23:58:06.475Z,72.00
